Time;durP1;ratioP1;P1;durP2;ratioP2;P2;SDS_P1;SDS_P2;PMS_P1;PMS_P2;Temp;Humidity;BMP_temperature;BMP_pressure;BME280_temperature;BME280_humidity;BME280_pressure;Samples;Min_cycle;Max_cycle;Signal;HPM_P1;HPM_P2
2023/09/20 00:01:50;;;;;;;13.93;5.22;;;17.00;99.90;;;;;;5051196;28;20048;-67
2023/09/20 00:04:16;;;;;;;11.88;4.50;;;17.00;99.90;;;;;;5014650;28;20037;-67
2023/09/20 00:06:42;;;;;;;11.65;5.03;;;16.90;99.90;;;;;;5017741;28;20060;-67
2023/09/20 00:09:08;;;;;;;9.00;4.22;;;16.90;99.90;;;;;;5033184;28;20120;-67
2023/09/20 00:11:35;;;;;;;13.25;5.47;;;16.90;99.90;;;;;;5033815;28;20040;-67
2023/09/20 00:14:01;;;;;;;10.38;4.38;;;16.90;99.90;;;;;;5034548;28;20090;-66
2023/09/20 00:16:28;;;;;;;14.57;5.28;;;16.80;99.90;;;;;;5032537;28;20475;-67
2023/09/20 00:18:54;;;;;;;9.75;4.28;;;17.00;99.90;;;;;;5046918;28;20053;-67
2023/09/20 00:21:20;;;;;;;14.93;5.45;;;16.80;99.90;;;;;;5047351;28;20128;-67
2023/09/20 00:23:46;;;;;;;14.63;4.68;;;16.90;99.90;;;;;;5013207;28;20453;-67
2023/09/20 00:26:13;;;;;;;12.85;4.40;;;16.80;99.90;;;;;;5037409;28;20094;-67
2023/09/20 00:28:39;;;;;;;11.57;4.50;;;16.90;99.90;;;;;;5033118;28;20192;-67
2023/09/20 00:31:05;;;;;;;12.75;5.65;;;16.90;99.90;;;;;;5033859;28;20093;-67
2023/09/20 00:33:32;;;;;;;10.95;5.20;;;16.90;99.90;;;;;;5017379;28;20086;-67
2023/09/20 00:35:57;;;;;;;12.60;4.53;;;16.80;99.90;;;;;;5032906;28;20052;-66
2023/09/20 00:38:24;;;;;;;13.13;3.92;;;16.90;99.90;;;;;;5049750;28;20041;-66
2023/09/20 00:40:50;;;;;;;16.52;5.38;;;16.90;99.90;;;;;;5033765;28;20494;-67
2023/09/20 00:43:23;;;;;;;12.77;5.20;;;16.90;99.90;;;;;;5033224;28;20041;-67
2023/09/20 00:45:49;;;;;;;9.50;4.70;;;16.90;99.90;;;;;;5033383;28;20127;-67
2023/09/20 00:48:15;;;;;;;11.65;3.78;;;17.00;99.90;;;;;;5050737;28;20072;-66
2023/09/20 00:50:41;;;;;;;10.65;4.05;;;16.90;99.90;;;;;;5032650;28;20619;-67
2023/09/20 00:53:11;;;;;;;14.50;4.57;;;16.90;99.90;;;;;;5036959;28;20080;-67
2023/09/20 00:55:37;;;;;;;13.55;4.20;;;17.00;99.90;;;;;;5037285;28;20148;-66
2023/09/20 00:58:07;;;;;;;14.30;4.53;;;17.00;99.90;;;;;;5049388;28;20374;-67
2023/09/20 01:00:40;;;;;;;14.20;4.60;;;17.00;99.90;;;;;;5054005;28;20037;-66
2023/09/20 01:03:06;;;;;;;12.15;4.28;;;17.10;99.90;;;;;;5045857;28;20122;-66
2023/09/20 01:05:37;;;;;;;12.45;4.70;;;17.00;99.90;;;;;;5036163;28;20578;-66
2023/09/20 01:08:04;;;;;;;13.82;5.10;;;17.10;99.90;;;;;;5053824;28;20490;-69
2023/09/20 01:10:36;;;;;;;15.23;4.75;;;17.00;99.90;;;;;;5037080;28;20052;-69
2023/09/20 01:13:04;;;;;;;12.38;4.18;;;17.10;99.90;;;;;;5036806;28;20037;-68
2023/09/20 01:15:34;;;;;;;13.25;4.47;;;17.10;99.90;;;;;;5044961;28;20064;-68
2023/09/20 01:18:01;;;;;;;14.60;5.07;;;17.10;99.90;;;;;;5036434;28;20577;-69
2023/09/20 01:20:28;;;;;;;15.63;5.15;;;17.00;99.90;;;;;;5054918;28;20041;-69
2023/09/20 01:22:56;;;;;;;10.23;4.97;;;17.00;99.90;;;;;;5037095;28;20044;-69
2023/09/20 01:25:26;;;;;;;12.90;5.28;;;17.00;99.90;;;;;;5053545;28;20375;-68
2023/09/20 01:27:57;;;;;;;10.15;5.38;;;17.00;99.90;;;;;;5036257;28;20076;-68
2023/09/20 01:30:25;;;;;;;13.77;4.43;;;17.10;99.90;;;;;;5037047;28;20053;-68
2023/09/20 01:33:03;;;;;;;9.27;5.20;;;17.00;99.90;;;;;;5035864;28;20477;-69
2023/09/20 01:35:30;;;;;;;12.55;5.00;;;17.10;99.90;;;;;;5036292;28;20048;-69
2023/09/20 01:37:56;;;;;;;12.35;4.72;;;17.00;99.90;;;;;;5019871;28;20478;-68
2023/09/20 01:40:26;;;;;;;11.85;5.00;;;17.10;99.90;;;;;;5035713;28;20119;-69
2023/09/20 01:42:53;;;;;;;15.45;5.30;;;17.10;99.90;;;;;;5036727;28;20393;-68
2023/09/20 01:45:20;;;;;;;11.52;4.80;;;17.00;99.90;;;;;;5019754;28;20048;-68
2023/09/20 01:47:54;;;;;;;12.20;4.85;;;16.90;99.90;;;;;;5053089;28;20098;-68
2023/09/20 01:50:23;;;;;;;14.85;5.53;;;17.00;99.90;;;;;;5036467;28;20095;-68
2023/09/20 01:52:53;;;;;;;14.40;6.78;;;17.00;99.90;;;;;;5035336;28;20041;-68
2023/09/20 01:55:21;;;;;;;12.32;4.68;;;17.00;99.90;;;;;;5019947;28;20521;-68
2023/09/20 01:57:51;;;;;;;12.57;5.85;;;17.10;99.90;;;;;;5053921;28;20037;-68
2023/09/20 02:00:22;;;;;;;13.43;5.00;;;17.00;99.90;;;;;;5035682;28;20056;-68
2023/09/20 02:02:55;;;;;;;14.15;5.15;;;17.10;99.90;;;;;;5035142;28;20040;-68
2023/09/20 02:05:23;;;;;;;14.20;4.57;;;17.00;99.90;;;;;;5035669;28;20040;-68
2023/09/20 02:07:50;;;;;;;18.00;4.57;;;17.00;99.90;;;;;;5018423;28;20589;-68
2023/09/20 02:10:17;;;;;;;13.73;5.10;;;17.00;99.90;;;;;;5019593;28;20131;-69
2023/09/20 02:12:56;;;;;;;13.73;4.75;;;17.00;99.90;;;;;;5036027;28;20063;-69
2023/09/20 02:15:29;;;;;;;11.90;4.57;;;17.00;99.90;;;;;;5018577;28;20053;-69
2023/09/20 02:17:55;;;;;;;18.95;6.28;;;17.00;99.90;;;;;;5035988;28;20055;-69
2023/09/20 02:20:23;;;;;;;11.60;4.53;;;17.00;99.90;;;;;;5036017;28;20052;-69
2023/09/20 02:22:55;;;;;;;10.48;4.07;;;17.10;99.90;;;;;;5034674;28;20072;-68
2023/09/20 02:25:22;;;;;;;11.73;4.65;;;17.00;99.90;;;;;;5035413;28;20059;-69
2023/09/20 02:27:49;;;;;;;11.73;4.20;;;17.10;99.90;;;;;;5035800;28;20410;-68
2023/09/20 02:30:19;;;;;;;12.18;4.90;;;17.10;99.90;;;;;;5035061;28;20049;-68
2023/09/20 02:32:53;;;;;;;10.35;4.45;;;17.10;99.90;;;;;;5035372;28;20120;-68
2023/09/20 02:35:24;;;;;;;10.20;4.15;;;17.10;99.90;;;;;;5034825;28;20555;-68
2023/09/20 02:37:54;;;;;;;10.50;4.18;;;17.10;99.90;;;;;;5018938;28;20048;-68
2023/09/20 02:40:23;;;;;;;10.25;3.80;;;17.20;99.90;;;;;;5035512;28;20049;-68
2023/09/20 02:42:59;;;;;;;14.52;4.60;;;17.10;99.90;;;;;;5034313;28;20052;-68
2023/09/20 02:45:30;;;;;;;10.02;4.40;;;17.20;99.90;;;;;;5035442;28;20151;-68
2023/09/20 02:47:57;;;;;;;12.93;4.65;;;17.00;99.90;;;;;;5019079;28;20040;-68
2023/09/20 02:50:24;;;;;;;10.80;4.47;;;17.20;99.90;;;;;;5017999;28;20041;-68
2023/09/20 02:52:51;;;;;;;14.30;5.45;;;17.20;99.90;;;;;;5035325;28;20090;-68
2023/09/20 02:55:20;;;;;;;10.90;4.55;;;17.20;99.90;;;;;;5053136;28;20482;-68
2023/09/20 02:57:52;;;;;;;10.43;4.43;;;17.10;99.90;;;;;;5034128;28;20088;-68
2023/09/20 03:00:23;;;;;;;10.85;4.32;;;17.20;99.90;;;;;;5035163;28;20087;-68
2023/09/20 03:02:57;;;;;;;11.70;4.18;;;17.30;99.90;;;;;;5018838;28;20390;-68
2023/09/20 03:05:27;;;;;;;11.88;4.35;;;17.10;99.90;;;;;;5034248;28;20075;-67
2023/09/20 03:07:54;;;;;;;10.38;4.47;;;17.20;99.90;;;;;;5035051;28;20032;-67
2023/09/20 03:10:21;;;;;;;7.65;3.63;;;17.10;99.90;;;;;;5033987;28;20120;-67
2023/09/20 03:12:51;;;;;;;9.43;3.17;;;17.20;99.90;;;;;;5034266;28;20083;-67
2023/09/20 03:15:22;;;;;;;10.57;3.88;;;17.20;99.90;;;;;;5017941;28;20095;-67
2023/09/20 03:18:00;;;;;;;11.98;4.28;;;17.20;99.90;;;;;;5033884;28;20464;-67
2023/09/20 03:20:26;;;;;;;10.50;4.68;;;17.20;99.90;;;;;;5034831;28;20114;-67
2023/09/20 03:22:58;;;;;;;14.07;4.32;;;17.20;99.90;;;;;;5034693;28;20075;-67
2023/09/20 03:25:25;;;;;;;12.10;3.75;;;17.30;99.90;;;;;;5016791;28;20053;-67
2023/09/20 03:27:51;;;;;;;10.60;4.97;;;17.30;99.90;;;;;;5051968;28;20052;-67
2023/09/20 03:30:20;;;;;;;9.57;3.85;;;17.20;99.90;;;;;;5017555;28;20391;-67
2023/09/20 03:32:49;;;;;;;10.60;4.22;;;17.30;99.90;;;;;;5016994;28;20063;-67
2023/09/20 03:35:16;;;;;;;9.23;3.83;;;17.30;99.90;;;;;;5034422;28;20047;-67
2023/09/20 03:37:44;;;;;;;8.43;4.03;;;17.20;99.90;;;;;;5034566;28;20078;-67
2023/09/20 03:40:16;;;;;;;10.27;3.85;;;17.30;99.90;;;;;;5033576;28;20041;-67
2023/09/20 03:42:42;;;;;;;8.40;3.88;;;17.30;99.90;;;;;;5051525;28;20040;-67
2023/09/20 03:45:14;;;;;;;10.73;4.15;;;17.30;99.90;;;;;;5033113;28;20037;-67
2023/09/20 03:47:53;;;;;;;10.60;3.90;;;17.20;99.90;;;;;;5033449;28;20048;-68
2023/09/20 03:50:19;;;;;;;8.35;3.95;;;17.20;99.90;;;;;;5017984;28;20041;-67
2023/09/20 03:52:45;;;;;;;11.73;4.75;;;17.20;99.90;;;;;;5033290;28;20589;-67
2023/09/20 03:55:12;;;;;;;11.60;4.38;;;17.20;99.90;;;;;;5035043;28;20049;-67
2023/09/20 03:57:38;;;;;;;14.63;4.93;;;17.10;99.90;;;;;;5017917;28;20044;-68
2023/09/20 04:00:11;;;;;;;9.43;3.83;;;17.10;99.90;;;;;;5033415;28;20051;-68
2023/09/20 04:02:38;;;;;;;11.63;4.05;;;17.10;99.90;;;;;;5033690;28;20045;-68
2023/09/20 04:05:13;;;;;;;11.98;4.70;;;17.20;99.90;;;;;;5033103;28;20087;-68
2023/09/20 04:07:39;;;;;;;12.48;5.40;;;17.20;99.90;;;;;;5033310;28;20037;-68
2023/09/20 04:10:07;;;;;;;10.40;3.90;;;17.20;99.90;;;;;;5034275;28;20059;-68
2023/09/20 04:12:33;;;;;;;10.80;4.72;;;17.20;99.90;;;;;;5033615;28;20076;-68
2023/09/20 04:14:58;;;;;;;14.63;6.00;;;17.10;99.90;;;;;;5032899;28;20045;-68
2023/09/20 04:17:27;;;;;;;10.57;4.45;;;17.00;99.90;;;;;;5033963;28;20041;-68
2023/09/20 04:19:56;;;;;;;14.02;4.30;;;17.00;99.90;;;;;;5034136;28;20049;-68
2023/09/20 04:22:21;;;;;;;13.73;4.50;;;17.00;99.90;;;;;;5050843;28;20048;-68
2023/09/20 04:24:47;;;;;;;11.52;4.85;;;17.00;99.90;;;;;;5033238;28;20413;-67
2023/09/20 04:27:13;;;;;;;8.52;4.13;;;17.10;99.90;;;;;;5035774;28;20127;-67
2023/09/20 04:29:39;;;;;;;14.82;4.80;;;17.10;99.90;;;;;;5037354;28;20059;-68
2023/09/20 04:32:05;;;;;;;12.52;4.55;;;17.00;99.90;;;;;;5037779;28;20525;-67
2023/09/20 04:34:30;;;;;;;9.80;4.55;;;17.00;99.90;;;;;;5037696;28;20056;-68
2023/09/20 04:36:56;;;;;;;14.45;5.78;;;16.90;99.90;;;;;;5037414;28;20401;-68
2023/09/20 04:39:24;;;;;;;16.38;6.10;;;16.90;99.90;;;;;;5037852;28;20098;-67
2023/09/20 04:41:50;;;;;;;13.98;5.10;;;16.90;99.90;;;;;;5036790;28;20068;-67
2023/09/20 04:44:16;;;;;;;12.15;4.93;;;16.90;99.90;;;;;;5037475;28;20048;-67
2023/09/20 04:46:43;;;;;;;11.90;4.68;;;16.80;99.90;;;;;;5020221;28;20033;-68
2023/09/20 04:49:10;;;;;;;10.93;4.45;;;16.90;99.90;;;;;;5036933;28;20052;-67
2023/09/20 04:51:37;;;;;;;11.77;4.53;;;16.80;99.90;;;;;;5055160;28;20033;-67
2023/09/20 04:54:04;;;;;;;11.75;4.65;;;16.80;99.90;;;;;;5037814;28;20041;-67
2023/09/20 04:56:30;;;;;;;10.20;5.40;;;16.80;99.90;;;;;;5036034;28;20049;-68
2023/09/20 04:58:57;;;;;;;9.50;4.57;;;16.80;99.90;;;;;;5037748;28;20045;-68
2023/09/20 05:01:23;;;;;;;10.57;5.25;;;16.70;99.90;;;;;;5037363;28;20040;-70
2023/09/20 05:03:50;;;;;;;10.50;4.65;;;16.70;99.90;;;;;;5036381;28;20055;-68
2023/09/20 05:06:16;;;;;;;12.60;5.30;;;16.70;99.90;;;;;;5036704;28;20090;-67
2023/09/20 05:08:42;;;;;;;15.82;5.45;;;16.70;99.90;;;;;;5037385;28;20091;-68
2023/09/20 05:11:10;;;;;;;12.10;4.45;;;16.70;99.90;;;;;;5019723;28;20490;-68
2023/09/20 05:13:36;;;;;;;15.80;5.15;;;16.70;99.90;;;;;;5036603;28;20049;-68
2023/09/20 05:16:03;;;;;;;11.38;5.82;;;16.60;99.90;;;;;;5037098;28;20056;-68
2023/09/20 05:18:30;;;;;;;11.88;4.05;;;16.60;99.90;;;;;;5019734;28;20094;-68
2023/09/20 05:20:55;;;;;;;12.40;4.75;;;16.60;99.90;;;;;;5020419;28;20051;-68
2023/09/20 05:23:21;;;;;;;14.02;4.97;;;16.50;99.90;;;;;;5037014;28;20398;-68
2023/09/20 05:25:48;;;;;;;10.02;4.35;;;16.60;99.90;;;;;;5032646;28;20809;-68
2023/09/20 05:28:15;;;;;;;13.55;5.20;;;16.50;99.90;;;;;;5016984;28;20033;-68
2023/09/20 05:30:44;;;;;;;14.25;5.35;;;16.60;99.90;;;;;;5034411;28;20375;-68
2023/09/20 05:33:11;;;;;;;9.30;3.83;;;16.60;99.90;;;;;;5015881;28;20048;-68
2023/09/20 05:35:41;;;;;;;9.75;4.75;;;16.60;99.90;;;;;;5033473;28;20041;-68
2023/09/20 05:38:07;;;;;;;10.15;4.45;;;16.60;99.90;;;;;;5031391;28;20050;-68
2023/09/20 05:40:34;;;;;;;12.52;4.28;;;16.60;99.90;;;;;;5034320;28;20076;-70
2023/09/20 05:43:03;;;;;;;13.10;4.97;;;16.60;99.90;;;;;;5034577;28;20098;-68
2023/09/20 05:45:30;;;;;;;11.00;4.22;;;16.60;99.90;;;;;;5032335;28;20076;-68
2023/09/20 05:47:57;;;;;;;7.68;4.10;;;16.60;99.90;;;;;;5033342;28;20040;-68
2023/09/20 05:50:33;;;;;;;12.75;4.70;;;16.70;99.90;;;;;;5016390;28;20049;-68
2023/09/20 05:52:59;;;;;;;9.15;4.60;;;16.60;99.90;;;;;;5032703;28;20095;-68
2023/09/20 05:55:26;;;;;;;10.13;4.90;;;16.60;99.90;;;;;;5033006;28;20060;-68
2023/09/20 05:57:53;;;;;;;10.32;4.10;;;16.60;99.90;;;;;;5033066;28;20099;-68
2023/09/20 06:00:22;;;;;;;8.40;4.03;;;16.60;99.90;;;;;;5031769;28;20037;-68
2023/09/20 06:02:51;;;;;;;11.85;5.13;;;16.60;99.90;;;;;;5033145;28;20046;-68
2023/09/20 06:05:19;;;;;;;10.10;4.47;;;16.60;99.90;;;;;;5032907;28;20491;-68
2023/09/20 06:07:44;;;;;;;8.05;3.90;;;16.60;99.90;;;;;;5032028;28;20501;-68
2023/09/20 06:10:11;;;;;;;10.02;4.10;;;16.50;99.90;;;;;;5032443;28;20045;-68
2023/09/20 06:12:38;;;;;;;9.20;3.67;;;16.50;99.90;;;;;;5016336;28;20033;-68
2023/09/20 06:15:07;;;;;;;11.60;3.65;;;16.50;99.90;;;;;;5033251;28;20391;-68
2023/09/20 06:17:33;;;;;;;11.52;4.68;;;16.50;99.90;;;;;;5032487;28;20049;-68
2023/09/20 06:20:00;;;;;;;12.52;4.35;;;16.60;99.90;;;;;;5016359;28;20095;-68
2023/09/20 06:22:29;;;;;;;8.52;3.55;;;16.50;99.90;;;;;;5031261;28;20549;-68
2023/09/20 06:24:58;;;;;;;10.73;4.15;;;16.60;99.90;;;;;;5035892;28;20080;-69
2023/09/20 06:27:30;;;;;;;9.18;4.20;;;16.50;99.90;;;;;;5053009;28;20444;-68
2023/09/20 06:29:57;;;;;;;10.68;4.32;;;16.50;99.90;;;;;;5035979;28;20041;-68
2023/09/20 06:32:23;;;;;;;10.30;4.10;;;16.50;99.90;;;;;;5035406;28;20052;-68
2023/09/20 06:34:49;;;;;;;8.57;3.85;;;16.50;99.90;;;;;;5034841;28;20091;-68
2023/09/20 06:37:14;;;;;;;10.63;3.90;;;16.60;99.90;;;;;;5035631;28;20040;-68
2023/09/20 06:39:43;;;;;;;11.63;4.05;;;16.50;99.90;;;;;;5035479;28;20086;-68
2023/09/20 06:42:09;;;;;;;8.88;3.55;;;16.50;99.90;;;;;;5033978;28;20130;-68
2023/09/20 06:44:35;;;;;;;10.65;3.83;;;16.50;99.90;;;;;;5034324;28;20101;-68
2023/09/20 06:47:08;;;;;;;8.70;3.95;;;16.50;99.90;;;;;;5035280;28;20495;-67
2023/09/20 06:49:37;;;;;;;12.43;3.90;;;16.60;99.90;;;;;;5034265;28;20429;-70
2023/09/20 06:52:03;;;;;;;9.27;3.60;;;16.50;99.90;;;;;;5034645;28;20044;-70
2023/09/20 06:54:29;;;;;;;9.85;3.78;;;16.60;99.90;;;;;;5035162;28;20052;-70
2023/09/20 06:57:02;;;;;;;9.75;3.85;;;16.60;99.90;;;;;;5018206;28;20498;-70
2023/09/20 06:59:30;;;;;;;8.38;4.18;;;16.60;99.90;;;;;;5034842;28;20099;-67
2023/09/20 07:01:57;;;;;;;8.73;3.30;;;16.60;99.90;;;;;;5034945;28;20140;-68
2023/09/20 07:04:25;;;;;;;10.82;3.70;;;16.60;99.90;;;;;;5002921;28;20064;-68
2023/09/20 07:06:55;;;;;;;6.82;3.08;;;16.70;99.90;;;;;;4996245;28;20041;-68
2023/09/20 07:09:22;;;;;;;9.73;3.70;;;16.60;99.90;;;;;;5012543;28;20049;-68
2023/09/20 07:11:50;;;;;;;8.15;3.22;;;16.70;99.90;;;;;;5030989;28;20072;-68
2023/09/20 07:14:20;;;;;;;9.32;3.45;;;16.70;99.90;;;;;;5030339;28;20049;-70
2023/09/20 07:16:48;;;;;;;8.27;3.47;;;16.70;99.90;;;;;;5031429;28;20041;-68
2023/09/20 07:19:17;;;;;;;9.85;3.42;;;16.70;99.90;;;;;;5015009;28;20032;-68
2023/09/20 07:21:46;;;;;;;8.05;3.50;;;16.70;99.90;;;;;;5029928;28;20041;-67
2023/09/20 07:24:15;;;;;;;9.55;4.15;;;16.70;99.90;;;;;;5030862;28;20405;-68
2023/09/20 07:26:45;;;;;;;7.07;3.45;;;16.80;99.90;;;;;;5025363;28;20089;-68
2023/09/20 07:29:15;;;;;;;7.90;3.60;;;16.80;99.90;;;;;;5028467;28;20041;-68
2023/09/20 07:31:42;;;;;;;8.80;3.53;;;16.80;99.90;;;;;;5011627;28;20033;-68
2023/09/20 07:34:11;;;;;;;7.18;3.63;;;16.90;99.90;;;;;;5028581;28;20037;-68
2023/09/20 07:36:40;;;;;;;7.93;3.45;;;16.80;99.90;;;;;;5028469;28;20048;-67
2023/09/20 07:39:08;;;;;;;10.43;3.78;;;16.90;99.90;;;;;;5027748;28;20046;-69
2023/09/20 07:41:37;;;;;;;8.65;3.20;;;16.90;99.90;;;;;;5029033;28;20046;-68
2023/09/20 07:44:05;;;;;;;7.38;3.33;;;16.90;99.90;;;;;;5029004;28;20084;-69
2023/09/20 07:46:34;;;;;;;9.45;3.78;;;17.00;99.90;;;;;;5011730;28;20037;-68
2023/09/20 07:49:09;;;;;;;10.10;3.75;;;17.00;99.90;;;;;;5011251;28;20564;-68
2023/09/20 07:51:36;;;;;;;;;;;17.10;99.90;;;;;;5015119;28;20041;-68
2023/09/20 07:54:03;;;;;;;6.65;2.90;;;17.10;99.90;;;;;;5028072;28;19971;-68
2023/09/20 07:56:29;;;;;;;7.80;3.15;;;17.20;99.90;;;;;;5027979;28;20041;-68
2023/09/20 07:58:55;;;;;;;10.30;3.67;;;17.20;99.90;;;;;;5027645;28;20038;-68
2023/09/20 08:01:21;;;;;;;6.95;3.15;;;17.20;99.90;;;;;;5027385;28;20100;-68
2023/09/20 08:03:58;;;;;;;7.32;3.22;;;17.30;99.90;;;;;;5023270;28;20479;-68
2023/09/20 08:06:33;;;;;;;8.98;3.55;;;17.40;99.90;;;;;;5027269;28;20045;-68
2023/09/20 08:08:59;;;;;;;7.50;3.25;;;17.30;99.90;;;;;;5028095;28;20052;-68
2023/09/20 08:11:26;;;;;;;8.55;3.58;;;17.40;99.90;;;;;;5027918;28;20041;-68
2023/09/20 08:13:56;;;;;;;7.63;3.40;;;17.50;99.90;;;;;;5022200;28;20192;-68
2023/09/20 08:16:23;;;;;;;9.90;3.72;;;17.50;99.90;;;;;;5018540;28;20041;-68
2023/09/20 08:21:32;;;;;;;8.00;3.83;;;17.40;99.90;;;;;;5026661;28;20406;-68
2023/09/20 09:00:21;;;;;;;10.43;5.10;;;17.80;99.90;;;;;;5030297;28;20592;-69
2023/09/20 09:02:52;;;;;;;8.00;4.43;;;17.90;99.90;;;;;;5035595;28;20060;-70
2023/09/20 09:05:20;;;;;;;9.52;4.35;;;17.80;99.90;;;;;;5030725;28;20052;-71
2023/09/20 09:07:47;;;;;;;12.27;5.28;;;17.80;99.90;;;;;;5032031;28;20045;-68
2023/09/20 09:10:14;;;;;;;8.52;4.40;;;17.90;99.90;;;;;;5029557;28;20045;-74
2023/09/20 09:12:43;;;;;;;9.70;4.50;;;17.80;99.90;;;;;;5034195;28;20556;-72
2023/09/20 09:15:11;;;;;;;9.63;4.50;;;17.80;99.90;;;;;;5036888;28;20079;-70
2023/09/20 09:17:40;;;;;;;7.57;4.05;;;17.80;99.90;;;;;;5036114;28;20045;-71
2023/09/20 09:20:10;;;;;;;7.07;3.88;;;17.90;99.90;;;;;;5036797;28;20040;-70
2023/09/20 09:22:38;;;;;;;8.20;4.10;;;17.90;99.90;;;;;;5054266;28;20037;-70
2023/09/20 09:25:18;;;;;;;12.70;4.43;;;17.90;99.90;;;;;;5036043;28;20048;-70
2023/09/20 09:27:44;;;;;;;8.25;3.72;;;17.90;99.90;;;;;;5019632;28;20471;-70
2023/09/20 09:30:12;;;;;;;7.40;3.88;;;17.90;99.90;;;;;;5011699;28;20059;-71
2023/09/20 09:32:39;;;;;;;9.35;4.03;;;18.00;99.90;;;;;;5020577;28;20041;-70
2023/09/20 09:35:06;;;;;;;6.57;3.85;;;17.90;99.90;;;;;;5032165;28;20095;-70
2023/09/20 09:37:32;;;;;;;7.68;4.18;;;17.90;99.90;;;;;;5025302;28;20075;-71
2023/09/20 09:40:02;;;;;;;8.77;3.92;;;18.00;99.90;;;;;;5032464;28;20056;-70
2023/09/20 09:42:31;;;;;;;6.63;3.50;;;17.90;99.90;;;;;;5030970;28;20042;-71
2023/09/20 09:44:58;;;;;;;6.45;3.90;;;17.90;99.90;;;;;;5033567;28;20033;-71
2023/09/20 09:47:25;;;;;;;5.45;3.42;;;18.00;99.90;;;;;;5051503;28;20343;-71
2023/09/20 09:49:55;;;;;;;6.57;4.30;;;18.00;99.90;;;;;;5024260;28;20443;-71
2023/09/20 09:52:23;;;;;;;6.72;4.07;;;18.10;99.90;;;;;;5035695;28;20505;-69
2023/09/20 09:54:50;;;;;;;8.43;3.92;;;18.10;99.90;;;;;;5017989;28;20046;-66
2023/09/20 09:57:20;;;;;;;7.43;3.63;;;18.20;99.90;;;;;;5032725;28;20048;-66
2023/09/20 09:59:51;;;;;;;9.85;4.32;;;18.20;99.90;;;;;;5015925;28;20171;-75
2023/09/20 10:02:22;;;;;;;6.55;3.60;;;18.20;99.90;;;;;;5016914;28;20052;-67
2023/09/20 10:04:54;;;;;;;9.25;3.60;;;18.20;99.90;;;;;;5014050;28;20091;-70
2023/09/20 10:07:22;;;;;;;8.45;4.18;;;18.20;99.90;;;;;;5011308;28;20418;-69
2023/09/20 10:09:52;;;;;;;6.90;3.97;;;18.20;99.90;;;;;;5048924;28;20184;-69
2023/09/20 10:12:21;;;;;;;6.55;3.83;;;18.10;99.90;;;;;;5015815;28;20084;-69
2023/09/20 10:14:48;;;;;;;9.07;3.95;;;18.10;99.90;;;;;;5016347;28;20486;-68
2023/09/20 10:17:17;;;;;;;10.52;4.15;;;18.10;99.90;;;;;;5000148;28;20394;-69
2023/09/20 10:19:42;;;;;;;8.00;4.32;;;18.10;99.90;;;;;;5015281;28;20048;-69
2023/09/20 10:22:10;;;;;;;8.75;4.53;;;18.10;99.90;;;;;;5000094;28;20037;-69
2023/09/20 10:24:58;;;;;;;7.00;4.22;;;18.10;99.90;;;;;;5015580;28;20053;-69
2023/09/20 10:27:30;;;;;;;7.32;4.93;;;18.00;99.90;;;;;;5018561;28;20044;-71
2023/09/20 10:30:14;;;;;;;7.15;4.72;;;18.00;99.90;;;;;;5036228;28;20056;-70
2023/09/20 10:32:47;;;;;;;8.00;4.80;;;18.00;99.90;;;;;;5035653;28;20051;-69
2023/09/20 10:35:29;;;;;;;6.45;4.57;;;18.00;99.90;;;;;;5034844;28;20045;-69
2023/09/20 10:38:24;;;;;;;9.15;4.57;;;18.00;99.90;;;;;;5035840;28;20052;-72
2023/09/20 10:40:57;;;;;;;5.75;3.80;;;18.00;99.90;;;;;;5034904;28;20091;-71
2023/09/20 10:43:46;;;;;;;8.48;5.20;;;17.90;99.90;;;;;;5035438;28;20060;-71
2023/09/20 10:46:14;;;;;;;7.57;4.18;;;17.90;99.90;;;;;;5018774;28;20048;-69
2023/09/20 10:48:51;;;;;;;6.82;4.25;;;17.90;99.90;;;;;;5034732;28;20053;-69
2023/09/20 10:51:49;;;;;;;8.55;4.57;;;17.90;99.90;;;;;;5035814;28;20044;-70
2023/09/20 10:54:18;;;;;;;6.93;4.80;;;17.80;99.90;;;;;;5035658;28;20120;-70
2023/09/20 10:56:55;;;;;;;7.53;4.65;;;17.90;99.90;;;;;;5034366;28;20045;-70
2023/09/20 10:59:22;;;;;;;10.27;4.93;;;17.90;99.90;;;;;;5035104;28;20041;-70
2023/09/20 11:01:50;;;;;;;7.57;4.43;;;17.90;99.90;;;;;;5034784;28;20052;-70
2023/09/20 11:04:16;;;;;;;6.18;3.85;;;18.00;99.90;;;;;;5034975;28;20037;-69
2023/09/20 11:06:45;;;;;;;8.57;4.22;;;17.90;99.90;;;;;;5052938;28;20154;-69
2023/09/20 11:09:11;;;;;;;7.63;4.60;;;17.90;99.90;;;;;;5034313;28;20099;-70
2023/09/20 11:11:39;;;;;;;8.07;3.90;;;17.90;99.90;;;;;;5034713;28;20056;-70
2023/09/20 11:14:06;;;;;;;10.10;4.32;;;17.90;99.90;;;;;;5035205;28;20037;-70
2023/09/20 11:16:31;;;;;;;7.65;4.13;;;18.00;99.90;;;;;;5033994;28;20052;-70
2023/09/20 11:18:58;;;;;;;8.27;3.85;;;18.00;99.90;;;;;;5035120;28;20045;-70
2023/09/20 11:21:24;;;;;;;7.88;4.18;;;18.00;99.90;;;;;;5035300;28;20385;-70
2023/09/20 11:23:53;;;;;;;7.72;3.80;;;18.00;99.90;;;;;;5033976;28;20048;-69
2023/09/20 11:26:29;;;;;;;8.73;5.00;;;18.00;99.90;;;;;;5031135;28;20049;-70
2023/09/20 11:28:56;;;;;;;9.00;4.30;;;18.00;99.90;;;;;;5031649;28;20114;-70
2023/09/20 11:31:30;;;;;;;10.75;5.03;;;18.00;99.90;;;;;;5030421;28;20050;-70
2023/09/20 11:34:00;;;;;;;;;;;18.10;99.90;;;;;;5032347;28;20033;-70
2023/09/20 11:36:29;;;;;;;8.15;4.50;;;18.00;99.90;;;;;;5031104;28;19921;-69
2023/09/20 11:38:55;;;;;;;9.73;4.75;;;18.00;99.90;;;;;;5030962;28;20557;-70
2023/09/20 11:41:24;;;;;;;7.88;4.55;;;18.10;99.90;;;;;;5030979;28;20046;-69
2023/09/20 11:43:55;;;;;;;6.43;4.60;;;18.10;99.90;;;;;;5030463;28;20056;-69
2023/09/20 11:46:21;;;;;;;10.38;4.80;;;18.20;99.90;;;;;;5014690;28;20088;-69
2023/09/20 11:48:49;;;;;;;8.40;5.25;;;18.10;99.90;;;;;;5030802;28;20041;-69
2023/09/20 11:51:16;;;;;;;7.63;5.35;;;18.20;99.90;;;;;;5030540;28;20124;-69
2023/09/20 11:53:44;;;;;;;7.70;5.63;;;18.20;99.90;;;;;;5030974;28;20049;-70
2023/09/20 11:56:10;;;;;;;12.80;6.05;;;18.20;99.90;;;;;;5030810;28;20060;-69
2023/09/20 11:58:37;;;;;;;8.10;6.00;;;18.20;99.90;;;;;;5030052;28;20048;-69
2023/09/20 12:01:06;;;;;;;9.60;6.63;;;18.20;99.90;;;;;;5031018;28;20041;-69
2023/09/20 12:03:33;;;;;;;7.45;5.60;;;18.20;99.90;;;;;;5030811;28;20053;-69
2023/09/20 12:05:59;;;;;;;9.00;5.50;;;18.20;99.90;;;;;;5030328;28;20572;-69
2023/09/20 12:08:31;;;;;;;8.82;5.30;;;18.10;99.90;;;;;;5030781;28;20055;-69
2023/09/20 12:10:58;;;;;;;9.32;5.78;;;18.10;99.90;;;;;;5030949;28;20046;-70
2023/09/20 12:13:24;;;;;;;9.35;5.05;;;18.20;99.90;;;;;;5029966;28;20142;-69
2023/09/20 12:15:51;;;;;;;9.23;6.10;;;18.10;99.90;;;;;;5030577;28;20076;-69
2023/09/20 12:18:16;;;;;;;8.35;4.75;;;18.10;99.90;;;;;;5030697;28;20049;-69
2023/09/20 12:20:42;;;;;;;8.52;4.82;;;18.10;99.90;;;;;;5029751;28;20045;-69
2023/09/20 12:23:09;;;;;;;10.20;4.72;;;18.10;99.90;;;;;;5030684;28;20119;-69
2023/09/20 12:25:35;;;;;;;8.30;4.40;;;18.10;99.90;;;;;;5030227;28;20104;-69
2023/09/20 12:28:01;;;;;;;8.43;4.65;;;18.10;99.90;;;;;;5030276;28;20045;-69
2023/09/20 12:30:27;;;;;;;7.05;4.07;;;18.20;99.90;;;;;;5030674;28;20617;-70
2023/09/20 12:32:56;;;;;;;6.45;4.18;;;18.20;99.90;;;;;;5030575;28;20049;-70
2023/09/20 12:35:22;;;;;;;11.85;4.20;;;18.30;99.90;;;;;;5030920;28;20394;-70
2023/09/20 12:37:47;;;;;;;7.00;3.92;;;18.30;99.90;;;;;;5014335;28;20049;-70
2023/09/20 12:40:13;;;;;;;6.38;3.70;;;18.30;99.90;;;;;;5013257;28;20129;-69
2023/09/20 12:42:39;;;;;;;7.22;4.00;;;18.30;99.90;;;;;;5030242;28;20049;-70
2023/09/20 12:45:08;;;;;;;9.70;4.35;;;18.30;99.90;;;;;;5030552;28;20045;-69
2023/09/20 12:47:35;;;;;;;8.32;4.63;;;18.30;99.90;;;;;;5030494;28;20120;-69
2023/09/20 12:50:01;;;;;;;9.38;4.28;;;18.30;99.90;;;;;;5034889;28;20038;-70
2023/09/20 12:52:27;;;;;;;8.00;4.25;;;18.30;99.90;;;;;;5017816;28;20120;-69
2023/09/20 12:54:53;;;;;;;8.65;4.45;;;18.30;99.90;;;;;;5033531;28;20125;-70
2023/09/20 12:57:20;;;;;;;9.70;4.70;;;18.30;99.90;;;;;;5034208;28;20073;-70
2023/09/20 12:59:46;;;;;;;10.10;4.90;;;18.30;99.90;;;;;;5033574;28;20060;-65
2023/09/20 13:02:12;;;;;;;8.30;4.13;;;18.40;99.90;;;;;;5033087;28;20045;-63
2023/09/20 13:04:40;;;;;;;7.13;5.07;;;18.30;99.90;;;;;;5034149;28;20053;-72
2023/09/20 13:07:06;;;;;;;8.70;5.20;;;18.40;99.90;;;;;;5009560;28;20042;-72
2023/09/20 13:09:32;;;;;;;10.65;5.07;;;18.40;99.90;;;;;;5013233;28;20042;-70
2023/09/20 13:11:57;;;;;;;8.73;5.07;;;18.40;99.90;;;;;;4998042;28;20044;-70
2023/09/20 13:14:24;;;;;;;8.10;4.72;;;18.50;99.90;;;;;;5018535;28;20034;-72
2023/09/20 13:16:50;;;;;;;7.97;5.15;;;18.60;99.90;;;;;;5011774;28;20037;-70
2023/09/20 13:19:18;;;;;;;9.13;4.95;;;18.70;99.90;;;;;;5029448;28;20064;-70
2023/09/20 13:21:45;;;;;;;11.13;5.22;;;18.80;99.90;;;;;;5022063;28;20464;-70
2023/09/20 13:24:11;;;;;;;9.88;5.05;;;18.90;99.90;;;;;;5028954;28;20375;-69
2023/09/20 13:26:38;;;;;;;8.73;4.60;;;19.00;99.90;;;;;;5037626;28;20190;-70
2023/09/20 13:29:05;;;;;;;7.85;4.30;;;19.10;99.90;;;;;;5034421;28;20037;-70